createdAt,value
2017-11-23T00:00:45.206Z,35.90
2017-11-23T00:03:11.441Z,35.90
2017-11-23T00:05:37.748Z,35.90
2017-11-23T00:08:04.016Z,36.00
2017-11-23T00:10:30.242Z,35.60
2017-11-23T00:12:56.462Z,35.60
2017-11-23T00:15:22.719Z,35.90
2017-11-23T00:17:48.958Z,36.40
2017-11-23T00:20:15.230Z,36.10
2017-11-23T00:22:41.504Z,36.20
2017-11-23T00:25:07.760Z,36.80
2017-11-23T00:27:34.118Z,36.10
2017-11-23T00:30:00.370Z,35.90
2017-11-23T00:32:26.611Z,36.80
2017-11-23T00:34:52.918Z,36.00
2017-11-23T00:37:19.923Z,36.40
2017-11-23T00:39:46.173Z,36.10
2017-11-23T00:42:13.210Z,36.50
2017-11-23T00:44:39.488Z,36.50
2017-11-23T00:47:05.749Z,36.30
2017-11-23T00:49:32.027Z,36.30
2017-11-23T00:51:58.257Z,36.40
2017-11-23T00:54:25.327Z,36.30
2017-11-23T00:56:54.941Z,36.20
2017-11-23T00:59:21.917Z,36.80
2017-11-23T01:01:49.230Z,36.80
2017-11-23T01:04:20.662Z,36.80
2017-11-23T01:06:46.966Z,36.60
2017-11-23T01:09:13.205Z,36.80
2017-11-23T01:11:39.527Z,37.30
2017-11-23T01:14:05.789Z,36.80
2017-11-23T01:16:32.060Z,37.60
2017-11-23T01:18:58.294Z,37.60
2017-11-23T01:21:24.590Z,37.10
2017-11-23T01:23:51.603Z,37.80
2017-11-23T01:26:17.893Z,37.80
2017-11-23T01:28:44.151Z,38.10
2017-11-23T01:31:12.867Z,38.00
2017-11-23T01:33:39.143Z,38.30
2017-11-23T01:36:05.389Z,38.50
2017-11-23T01:38:32.564Z,37.80
2017-11-23T01:40:58.848Z,38.40
2017-11-23T01:43:25.162Z,38.80
2017-11-23T01:45:51.467Z,38.80
2017-11-23T01:48:17.763Z,38.90
2017-11-23T01:50:44.035Z,39.10
2017-11-23T01:53:10.299Z,38.90
2017-11-23T01:55:36.600Z,39.10
2017-11-23T01:58:03.570Z,39.20
2017-11-23T02:00:29.867Z,39.10
2017-11-23T02:02:56.915Z,39.00
2017-11-23T02:05:23.982Z,39.50
2017-11-23T02:07:50.402Z,39.40
2017-11-23T02:10:16.668Z,39.00
2017-11-23T02:12:42.910Z,38.90
2017-11-23T02:15:09.922Z,39.10
2017-11-23T02:17:36.200Z,39.00
2017-11-23T02:20:03.931Z,38.80
2017-11-23T02:22:30.219Z,38.80
2017-11-23T02:24:56.495Z,39.10
2017-11-23T02:27:23.506Z,39.30
2017-11-23T02:29:49.786Z,39.30
2017-11-23T02:32:16.159Z,39.60
2017-11-23T02:34:43.150Z,39.80
2017-11-23T02:37:09.436Z,39.80
2017-11-23T02:39:35.861Z,40.00
2017-11-23T02:42:02.878Z,40.20
2017-11-23T02:44:29.141Z,40.20
2017-11-23T02:46:55.909Z,40.70
2017-11-23T02:49:22.377Z,40.20
2017-11-23T02:51:48.594Z,40.10
2017-11-23T02:54:14.891Z,40.00
2017-11-23T02:56:41.220Z,40.50
2017-11-23T02:59:08.351Z,40.30
2017-11-23T03:01:34.811Z,40.30
2017-11-23T03:04:01.082Z,40.20
2017-11-23T03:06:28.096Z,41.20
2017-11-23T03:08:54.745Z,40.30
2017-11-23T03:11:20.930Z,40.70
2017-11-23T03:13:47.190Z,40.70
2017-11-23T03:16:13.440Z,40.40
2017-11-23T03:18:39.716Z,40.60
2017-11-23T03:21:05.987Z,40.10
2017-11-23T03:23:32.275Z,40.50
2017-11-23T03:25:58.537Z,40.80
2017-11-23T03:28:25.799Z,40.10
2017-11-23T03:30:52.114Z,40.10
2017-11-23T03:33:18.383Z,40.20
2017-11-23T03:35:44.691Z,39.80
2017-11-23T03:38:11.027Z,39.60
2017-11-23T03:40:37.276Z,39.50
2017-11-23T03:43:03.532Z,39.40
2017-11-23T03:45:30.631Z,39.60
2017-11-23T03:47:57.626Z,40.00
2017-11-23T03:50:24.256Z,40.10
2017-11-23T03:52:51.250Z,40.20
2017-11-23T03:55:17.631Z,40.10
2017-11-23T03:57:43.952Z,40.90
2017-11-23T04:00:10.243Z,41.20
2017-11-23T04:02:36.504Z,41.50
2017-11-23T04:05:02.799Z,42.00
2017-11-23T04:07:29.819Z,42.60
2017-11-23T04:09:56.091Z,42.40
2017-11-23T04:12:22.459Z,42.90
2017-11-23T04:14:48.713Z,43.10
2017-11-23T04:17:15.717Z,43.20
2017-11-23T04:19:42.731Z,43.50
2017-11-23T04:22:08.995Z,43.40
2017-11-23T04:24:35.260Z,43.50
2017-11-23T04:27:01.590Z,43.50
2017-11-23T04:29:27.864Z,43.50
2017-11-23T04:31:54.192Z,43.60
2017-11-23T04:34:20.471Z,44.00
2017-11-23T04:36:46.789Z,43.90
2017-11-23T04:39:13.216Z,43.70
2017-11-23T04:41:39.662Z,44.20
2017-11-23T04:44:06.255Z,43.60
2017-11-23T04:46:32.526Z,43.60
2017-11-23T04:48:59.574Z,44.00
2017-11-23T04:51:26.564Z,43.70
2017-11-23T04:53:52.820Z,43.80
2017-11-23T04:56:18.894Z,43.60
2017-11-23T04:58:44.956Z,44.10
2017-11-23T05:01:11.047Z,44.40
2017-11-23T05:03:37.986Z,44.30
2017-11-23T05:06:04.094Z,44.30
2017-11-23T05:08:30.162Z,43.60
2017-11-23T05:10:56.220Z,44.00
2017-11-23T05:13:23.023Z,44.30
2017-11-23T05:15:55.446Z,44.30
2017-11-23T05:18:21.530Z,43.90
2017-11-23T05:20:48.489Z,43.70
2017-11-23T05:23:17.922Z,43.70
2017-11-23T05:25:43.961Z,43.80
2017-11-23T05:28:10.753Z,43.70
2017-11-23T05:30:37.563Z,43.80
2017-11-23T05:33:03.624Z,43.80
2017-11-23T05:35:29.714Z,43.70
2017-11-23T05:37:56.115Z,44.00
2017-11-23T05:40:22.979Z,44.10
2017-11-23T05:42:49.967Z,44.30
2017-11-23T05:45:16.020Z,44.20
2017-11-23T05:47:42.096Z,43.80
2017-11-23T05:50:08.815Z,44.30
2017-11-23T05:52:34.918Z,43.90
2017-11-23T05:55:01.694Z,43.90
2017-11-23T05:57:27.748Z,44.00
2017-11-23T05:59:53.807Z,44.30
2017-11-23T06:02:20.700Z,43.90
2017-11-23T06:04:48.351Z,43.90
2017-11-23T06:07:15.138Z,43.90
2017-11-23T06:09:41.203Z,43.90
2017-11-23T06:12:07.370Z,44.00
2017-11-23T06:14:33.421Z,43.90
2017-11-23T06:17:00.210Z,45.10
2017-11-23T06:19:26.345Z,45.00
2017-11-23T06:21:52.456Z,44.00
2017-11-23T06:24:19.249Z,44.80
2017-11-23T06:26:45.321Z,44.70
2017-11-23T06:29:11.405Z,44.40
2017-11-23T06:31:37.531Z,44.20
2017-11-23T06:34:05.128Z,44.70
2017-11-23T06:36:31.490Z,44.10
2017-11-23T06:38:58.335Z,44.20
2017-11-23T06:41:24.398Z,44.20
2017-11-23T06:43:50.442Z,44.30
2017-11-23T06:46:16.692Z,44.30
2017-11-23T06:48:42.949Z,44.10
2017-11-23T06:51:09.200Z,44.40
2017-11-23T06:53:35.473Z,44.40
2017-11-23T06:56:02.517Z,44.10
2017-11-23T06:58:29.513Z,44.60
2017-11-23T07:00:56.613Z,44.50
2017-11-23T07:03:22.933Z,44.20
2017-11-23T07:05:49.216Z,44.20
2017-11-23T07:08:16.215Z,43.90
2017-11-23T07:10:42.472Z,43.80
2017-11-23T07:13:08.723Z,44.50
2017-11-23T07:15:35.732Z,44.60
2017-11-23T07:18:02.075Z,44.20
2017-11-23T07:20:28.306Z,43.70
2017-11-23T07:22:54.623Z,43.40
2017-11-23T07:25:21.669Z,43.10
2017-11-23T07:27:47.953Z,43.10
2017-11-23T07:30:14.182Z,43.00
2017-11-23T07:32:40.626Z,43.30
2017-11-23T07:35:06.890Z,43.00
2017-11-23T07:37:33.140Z,43.10
2017-11-23T07:40:00.139Z,43.40
2017-11-23T07:42:26.425Z,43.40
2017-11-23T07:44:52.690Z,43.30
2017-11-23T07:47:18.923Z,43.00
2017-11-23T07:49:45.919Z,43.10
2017-11-23T07:52:12.319Z,42.90
2017-11-23T07:54:39.448Z,42.90
2017-11-23T07:57:05.742Z,42.80
2017-11-23T07:59:31.984Z,42.30
2017-11-23T08:01:58.952Z,42.20
2017-11-23T08:04:25.231Z,42.10
2017-11-23T08:06:51.800Z,42.30
2017-11-23T08:09:18.293Z,42.80
2017-11-23T08:11:44.599Z,42.30
2017-11-23T08:14:10.963Z,42.80
2017-11-23T08:16:37.235Z,43.10
2017-11-23T08:19:03.526Z,42.60
2017-11-23T08:21:30.461Z,43.20
2017-11-23T08:24:01.496Z,43.00
2017-11-23T08:26:27.771Z,43.00
2017-11-23T08:28:54.030Z,42.90
2017-11-23T08:31:20.868Z,43.60
2017-11-23T08:33:47.137Z,43.40
2017-11-23T08:36:13.486Z,44.30
2017-11-23T08:38:39.724Z,43.90
2017-11-23T08:41:06.135Z,44.00
2017-11-23T08:43:33.709Z,43.50
2017-11-23T08:46:00.023Z,43.50
2017-11-23T08:48:26.244Z,43.80
2017-11-23T08:50:52.538Z,44.20
2017-11-23T08:53:18.786Z,44.40
2017-11-23T08:55:45.004Z,44.90
2017-11-23T08:58:11.246Z,44.50
2017-11-23T09:00:37.547Z,45.10
2017-11-23T09:03:07.730Z,43.60
2017-11-23T09:05:38.164Z,43.90
2017-11-23T09:08:04.491Z,44.00
2017-11-23T09:10:30.740Z,43.30
2017-11-23T09:12:57.538Z,43.60
2017-11-23T09:15:23.750Z,43.60
2017-11-23T09:17:50.544Z,44.40
2017-11-23T09:20:17.555Z,44.80
2017-11-23T09:22:43.809Z,44.80
2017-11-23T09:25:13.271Z,44.80
2017-11-23T09:27:39.529Z,44.60
2017-11-23T09:30:05.870Z,45.10
2017-11-23T09:32:32.127Z,45.60
2017-11-23T09:34:58.391Z,45.00
2017-11-23T09:37:24.649Z,44.60
2017-11-23T09:39:50.927Z,44.70
2017-11-23T09:42:18.939Z,45.40
2017-11-23T09:44:45.227Z,45.20
2017-11-23T09:47:11.464Z,44.80
2017-11-23T09:49:37.752Z,45.50
2017-11-23T09:52:04.078Z,45.70
2017-11-23T09:54:31.082Z,45.50
2017-11-23T09:56:57.359Z,45.50
2017-11-23T09:59:25.578Z,45.50
2017-11-23T10:01:52.635Z,45.80
2017-11-23T10:04:19.614Z,45.50
2017-11-23T10:06:45.927Z,45.50
2017-11-23T10:09:12.939Z,45.60
2017-11-23T10:11:39.233Z,45.50
2017-11-23T10:14:13.287Z,45.80
2017-11-23T10:16:40.252Z,45.70
2017-11-23T10:19:06.503Z,45.70
2017-11-23T10:21:32.792Z,45.60
2017-11-23T10:23:59.019Z,45.60
2017-11-23T10:26:25.296Z,46.40
2017-11-23T10:28:52.300Z,45.80
2017-11-23T10:31:21.539Z,45.80
2017-11-23T10:33:47.798Z,45.60
2017-11-23T10:36:14.028Z,45.70
2017-11-23T10:38:40.278Z,45.40
2017-11-23T10:41:06.771Z,45.90
2017-11-23T10:43:33.035Z,45.80
2017-11-23T10:45:59.306Z,45.90
2017-11-23T10:48:31.936Z,46.10
2017-11-23T10:50:58.942Z,46.00
2017-11-23T10:53:25.234Z,46.00
2017-11-23T10:55:52.335Z,46.10
2017-11-23T10:58:18.595Z,46.00
2017-11-23T11:00:44.768Z,46.70
2017-11-23T11:03:17.344Z,46.10
2017-11-23T11:05:43.581Z,47.10
2017-11-23T11:08:09.876Z,46.30
2017-11-23T11:10:36.191Z,46.30
2017-11-23T11:13:03.159Z,45.80
2017-11-23T11:15:29.429Z,46.20
2017-11-23T11:18:00.674Z,46.30
2017-11-23T11:20:26.935Z,46.30
2017-11-23T11:22:54.040Z,46.80
2017-11-23T11:25:20.302Z,46.80
2017-11-23T11:27:46.523Z,46.30
2017-11-23T11:30:13.539Z,47.80
2017-11-23T11:32:39.844Z,47.50
2017-11-23T11:35:07.653Z,47.90
2017-11-23T11:37:33.882Z,47.90
2017-11-23T11:40:00.199Z,48.20
2017-11-23T11:42:26.501Z,48.70
2017-11-23T11:44:52.758Z,49.10
2017-11-23T11:47:19.747Z,50.30
2017-11-23T11:49:45.999Z,50.30
2017-11-23T11:52:12.248Z,50.80
2017-11-23T11:54:43.521Z,51.80
2017-11-23T11:57:10.491Z,51.80
2017-11-23T11:59:36.747Z,51.70
2017-11-23T12:02:03.062Z,51.70
2017-11-23T12:04:29.283Z,52.40
2017-11-23T12:06:55.581Z,52.60
2017-11-23T12:09:24.367Z,53.60
2017-11-23T12:11:50.628Z,53.10
2017-11-23T12:14:26.073Z,53.50
2017-11-23T12:20:01.626Z,53.80
2017-11-23T12:22:41.142Z,53.30
2017-11-23T12:25:07.561Z,53.20
2017-11-23T12:27:50.187Z,53.30
2017-11-23T12:30:16.619Z,53.10
2017-11-23T12:32:42.970Z,53.60
2017-11-23T12:35:09.311Z,53.70
2017-11-23T12:37:36.375Z,54.00
2017-11-23T12:40:02.713Z,54.00
2017-11-23T12:42:29.010Z,53.90
2017-11-23T12:44:55.361Z,53.70
2017-11-23T12:47:25.802Z,54.30
2017-11-23T12:49:52.231Z,54.50
2017-11-23T12:52:18.694Z,54.60
2017-11-23T12:54:45.079Z,54.20
2017-11-23T12:57:11.399Z,54.10
2017-11-23T12:59:38.446Z,53.60
2017-11-23T13:02:04.874Z,53.80
2017-11-23T13:04:37.955Z,54.20
2017-11-23T13:07:04.289Z,54.10
2017-11-23T13:09:30.604Z,53.50
2017-11-23T13:11:56.929Z,54.40
2017-11-23T13:14:23.991Z,52.90
2017-11-23T13:16:50.341Z,52.90
2017-11-23T13:19:16.670Z,53.00
2017-11-23T13:21:46.733Z,53.50
2017-11-23T13:24:13.193Z,53.60
2017-11-23T13:26:39.514Z,53.10
2017-11-23T13:29:05.871Z,52.70
2017-11-23T13:31:33.126Z,52.70
2017-11-23T13:34:01.194Z,52.70
2017-11-23T13:36:27.510Z,52.70
2017-11-23T13:38:53.855Z,52.70
2017-11-23T13:41:20.219Z,52.70
2017-11-23T13:43:46.566Z,52.70
2017-11-23T13:46:12.931Z,52.80
2017-11-23T13:48:45.186Z,52.70
2017-11-23T13:51:11.583Z,52.70
2017-11-23T13:53:38.030Z,53.00
2017-11-23T13:56:04.344Z,52.70
2017-11-23T13:58:30.672Z,53.00
2017-11-23T14:00:59.737Z,52.90
2017-11-23T14:03:32.036Z,51.70
2017-11-23T14:05:58.459Z,51.30
2017-11-23T14:08:25.005Z,50.60
2017-11-23T14:10:51.642Z,50.00
2017-11-23T14:13:17.982Z,50.70
2017-11-23T14:15:45.124Z,50.40
2017-11-23T14:18:11.464Z,50.40
2017-11-23T14:20:37.814Z,49.60
2017-11-23T14:23:04.631Z,50.10
2017-11-23T14:25:30.982Z,50.30
2017-11-23T14:27:57.504Z,49.40
2017-11-23T14:30:23.825Z,50.40
2017-11-23T14:32:50.166Z,50.20
2017-11-23T14:35:16.481Z,50.80
2017-11-23T14:37:42.838Z,51.50
2017-11-23T14:40:09.198Z,51.80
2017-11-23T14:42:35.807Z,51.70
2017-11-23T14:45:02.223Z,51.30
2017-11-23T14:47:28.573Z,51.70
2017-11-23T14:49:54.916Z,51.90
2017-11-23T14:52:21.219Z,51.50
2017-11-23T14:54:47.562Z,52.00
2017-11-23T14:57:14.098Z,51.50
2017-11-23T14:59:40.429Z,51.70
2017-11-23T15:02:07.557Z,51.80
2017-11-23T15:04:34.617Z,52.50
2017-11-23T15:07:01.034Z,51.80
2017-11-23T15:09:27.397Z,52.10
2017-11-23T15:11:53.749Z,52.70
2017-11-23T15:14:20.109Z,52.80
2017-11-23T15:16:46.501Z,53.10
2017-11-23T15:19:12.885Z,53.80
2017-11-23T15:21:40.034Z,54.60
2017-11-23T15:24:06.394Z,54.50
2017-11-23T15:26:33.524Z,55.60
2017-11-23T15:28:59.700Z,55.60
2017-11-23T15:31:25.902Z,56.00
2017-11-23T15:33:52.046Z,56.70
2017-11-23T15:36:18.948Z,57.50
2017-11-23T15:38:45.376Z,57.40
2017-11-23T15:41:11.517Z,59.00
2017-11-23T15:43:38.600Z,59.40
2017-11-23T15:46:05.319Z,59.30
2017-11-23T15:48:31.799Z,60.20
2017-11-23T15:50:58.187Z,60.70
2017-11-23T15:53:25.934Z,60.80
2017-11-23T15:55:52.392Z,61.20
2017-11-23T15:58:18.932Z,61.30
2017-11-23T16:00:45.397Z,60.80
2017-11-23T16:03:11.899Z,60.60
2017-11-23T16:05:47.387Z,60.90
2017-11-23T16:08:20.923Z,59.70
2017-11-23T16:10:47.262Z,58.30
2017-11-23T16:13:14.450Z,64.10
2017-11-23T16:15:40.969Z,64.20
2017-11-23T16:18:07.332Z,69.50
2017-11-23T16:20:33.687Z,74.40
2017-11-23T16:23:00.101Z,76.60
2017-11-23T16:25:27.280Z,79.30
2017-11-23T16:27:53.706Z,79.30
2017-11-23T16:30:20.065Z,79.90
2017-11-23T16:32:46.478Z,79.70
2017-11-23T16:35:12.864Z,80.10
2017-11-23T16:37:51.093Z,81.20
2017-11-23T16:40:33.293Z,80.80
2017-11-23T16:43:01.329Z,81.40
2017-11-23T16:45:33.618Z,81.80
2017-11-23T16:48:16.667Z,81.50
2017-11-23T16:50:49.762Z,81.60
2017-11-23T16:53:22.105Z,81.70
2017-11-23T16:55:54.243Z,81.70
2017-11-23T16:58:26.532Z,81.60
2017-11-23T17:01:04.504Z,81.70
2017-11-23T17:03:36.600Z,81.70
2017-11-23T17:06:08.978Z,81.50
2017-11-23T17:11:48.299Z,80.80
2017-11-23T17:14:18.507Z,80.50
2017-11-23T17:16:46.433Z,80.70
2017-11-23T17:19:15.546Z,80.60
2017-11-23T17:21:41.708Z,80.10
2017-11-23T17:24:07.925Z,80.20
2017-11-23T17:26:38.160Z,80.30
2017-11-23T17:29:04.340Z,81.00
2017-11-23T17:31:30.427Z,80.30
2017-11-23T17:33:57.230Z,80.70
2017-11-23T17:36:23.358Z,80.60
2017-11-23T17:38:49.455Z,80.10
2017-11-23T17:41:15.524Z,80.60
2017-11-23T17:43:48.847Z,81.00
2017-11-23T17:46:14.974Z,79.80
2017-11-23T17:48:41.788Z,79.60
2017-11-23T17:51:08.613Z,79.20
2017-11-23T17:53:34.675Z,79.10
2017-11-23T17:56:00.762Z,79.00
2017-11-23T17:58:27.578Z,78.30
2017-11-23T18:00:58.429Z,78.30
2017-11-23T18:03:24.528Z,78.50
2017-11-23T18:05:51.351Z,77.60
2017-11-23T18:08:17.419Z,77.10
2017-11-23T18:10:44.230Z,77.90
2017-11-23T18:13:10.423Z,77.60
2017-11-23T18:15:36.527Z,77.00
2017-11-23T18:18:02.724Z,78.30
2017-11-23T18:20:30.710Z,78.50
2017-11-23T18:22:56.827Z,78.50
2017-11-23T18:25:22.952Z,77.80
2017-11-23T18:27:49.034Z,78.00
2017-11-23T18:30:15.136Z,77.50
2017-11-23T18:32:41.260Z,77.10
2017-11-23T18:35:07.391Z,77.50
2017-11-23T18:37:39.529Z,77.10
2017-11-23T18:40:05.695Z,76.00
2017-11-23T18:42:31.782Z,76.50
2017-11-23T18:44:57.853Z,76.70
2017-11-23T18:47:24.670Z,76.50
2017-11-23T18:49:50.731Z,77.20
2017-11-23T18:52:17.555Z,75.70
2017-11-23T18:54:43.622Z,75.60
2017-11-23T18:57:12.775Z,75.60
2017-11-23T18:59:38.926Z,73.90
2017-11-23T19:02:04.999Z,73.80
2017-11-23T19:04:31.055Z,73.80
2017-11-23T19:06:57.114Z,73.00
2017-11-23T19:09:23.912Z,71.40
2017-11-23T19:11:50.805Z,70.90
2017-11-23T19:14:22.178Z,71.40
2017-11-23T19:16:48.246Z,70.40
2017-11-23T19:19:14.337Z,69.50
2017-11-23T19:21:40.428Z,68.60
2017-11-23T19:24:06.591Z,68.70
2017-11-23T19:26:32.655Z,68.00
2017-11-23T19:28:58.860Z,66.80
2017-11-23T19:31:25.055Z,66.90
2017-11-23T19:33:56.237Z,66.10
2017-11-23T19:36:22.307Z,67.40
2017-11-23T19:38:48.416Z,66.00
2017-11-23T19:41:14.467Z,66.40
2017-11-23T19:43:40.589Z,65.00
2017-11-23T19:46:06.698Z,65.60
2017-11-23T19:48:33.594Z,66.10
2017-11-23T19:50:59.666Z,66.00
2017-11-23T19:53:27.616Z,64.00
2017-11-23T19:55:53.767Z,63.90
2017-11-23T19:58:19.857Z,63.80
2017-11-23T20:00:45.931Z,64.70
2017-11-23T20:03:12.023Z,63.90
2017-11-23T20:05:38.079Z,63.40
2017-11-23T20:08:04.139Z,64.30
2017-11-23T20:10:34.121Z,65.00
2017-11-23T20:13:00.173Z,64.80
2017-11-23T20:15:26.231Z,65.90
2017-11-23T20:17:52.375Z,66.10
2017-11-23T20:20:18.461Z,66.80
2017-11-23T20:22:45.296Z,64.80
2017-11-23T20:25:11.371Z,64.50
2017-11-23T20:27:38.210Z,64.80
2017-11-23T20:30:06.306Z,64.80
2017-11-23T20:32:32.430Z,64.60
2017-11-23T20:34:58.652Z,65.30
2017-11-23T20:37:24.707Z,64.80
2017-11-23T20:39:50.791Z,64.60
2017-11-23T20:42:16.931Z,63.60
2017-11-23T20:44:42.986Z,63.20
2017-11-23T20:47:15.062Z,61.90
2017-11-23T20:49:41.200Z,61.90
2017-11-23T20:52:07.343Z,62.90
2017-11-23T20:54:33.411Z,63.00
2017-11-23T20:56:59.471Z,63.00
2017-11-23T20:59:25.548Z,61.50
2017-11-23T21:01:52.354Z,61.90
2017-11-23T21:04:18.421Z,61.90
2017-11-23T21:06:44.483Z,61.90
2017-11-23T21:09:11.307Z,62.70
2017-11-23T21:11:37.388Z,62.50
2017-11-23T21:14:04.186Z,62.50
2017-11-23T21:16:30.992Z,62.00
2017-11-23T21:18:57.202Z,62.00
2017-11-23T21:21:23.285Z,61.50
2017-11-23T21:23:49.520Z,61.60
2017-11-23T21:26:19.900Z,62.00
2017-11-23T21:28:46.142Z,62.00
2017-11-23T21:31:13.151Z,60.50
2017-11-23T21:33:39.553Z,60.50
2017-11-23T21:36:06.619Z,60.60
2017-11-23T21:38:32.727Z,60.50
2017-11-23T21:40:59.043Z,60.60
2017-11-23T21:43:25.396Z,60.60
2017-11-23T21:45:51.629Z,59.90
2017-11-23T21:48:17.884Z,60.50
2017-11-23T21:50:44.168Z,59.80
2017-11-23T21:53:10.535Z,60.30
2017-11-23T21:55:36.843Z,60.00
2017-11-23T21:58:03.114Z,59.50
2017-11-23T22:00:30.116Z,58.50
2017-11-23T22:02:57.255Z,58.50
2017-11-23T22:05:23.543Z,58.40
2017-11-23T22:07:49.783Z,58.70
2017-11-23T22:10:16.038Z,57.60
2017-11-23T22:12:42.974Z,57.80
2017-11-23T22:15:09.231Z,57.70
2017-11-23T22:17:35.512Z,57.80
2017-11-23T22:20:02.876Z,58.20
2017-11-23T22:22:29.187Z,58.40
2017-11-23T22:24:56.271Z,57.70
2017-11-23T22:27:22.587Z,57.70
2017-11-23T22:29:48.966Z,58.00
2017-11-23T22:32:15.289Z,58.20
2017-11-23T22:34:42.259Z,58.10
2017-11-23T22:37:08.575Z,58.10
2017-11-23T22:39:34.850Z,58.80
2017-11-23T22:42:01.179Z,58.50
2017-11-23T22:44:27.478Z,58.60
2017-11-23T22:46:53.776Z,58.80
2017-11-23T22:49:20.738Z,58.70
2017-11-23T22:51:46.987Z,58.70
2017-11-23T22:54:13.983Z,58.00
2017-11-23T22:56:40.384Z,57.90
2017-11-23T22:59:10.130Z,59.80
2017-11-23T23:01:37.380Z,59.00
2017-11-23T23:04:03.654Z,59.20
2017-11-23T23:06:29.940Z,59.60
2017-11-23T23:08:56.222Z,59.70
2017-11-23T23:11:22.487Z,60.00
2017-11-23T23:13:49.571Z,59.00
2017-11-23T23:16:16.556Z,59.40
2017-11-23T23:18:42.851Z,59.30
2017-11-23T23:21:09.095Z,59.40
2017-11-23T23:23:35.363Z,59.00
2017-11-23T23:26:01.661Z,58.70
2017-11-23T23:28:27.955Z,58.40
2017-11-23T23:30:54.187Z,58.20
2017-11-23T23:33:20.828Z,58.10
2017-11-23T23:35:47.827Z,58.20
2017-11-23T23:38:14.068Z,58.30
2017-11-23T23:40:40.378Z,58.50
2017-11-23T23:43:07.334Z,58.40
2017-11-23T23:45:33.575Z,58.20
2017-11-23T23:47:59.828Z,58.30
2017-11-23T23:50:26.164Z,58.60
2017-11-23T23:52:52.390Z,58.70
2017-11-23T23:55:18.719Z,58.60
2017-11-23T23:57:45.010Z,58.20
